CYXQ

Beaver Creek Airport

Beaver Creek, , Canada
METAR CYXQ 202200Z 33007G15KT 290V360 30SM BKN050 BKN170 22/08 A3024 RMK CU5AC1 CONTRAILS/TCU EMBD/CLIMAT 22.8/16.3/0.0/LAST STFD OBS/NXT 211600Z SLP252 DENSITY ALT 3100FT
Observed Flight Rules
Jul-20 @ 22:00 UTC (16 hours ago) Visual Flight Rules
Wind Visibility Clouds
330° at 7 knots
 Gusting to 15 knots
30 miles
  • Broken at 5,000' AGL
  • Broken at 17,000' AGL
Temperatures Readings
Current 22°C / 72°F
Dewpoint 8°C / 46°F
Humidity 41%
Altimeter 30.24" Hg
Pressure 1025.2 hPa
Elevation 649
METAR CYXQ 202200Z 33007G15KT 290V360 30SM BKN050 BKN170 22/08 A3024 RMK CU5AC1 CONTRAILS/TCU EMBD/CLIMAT 22.8/16.3/0.0/LAST STFD OBS/NXT 211600Z SLP252 DENSITY ALT 3100FT
Observed Flight Rules
Jul-20 @ 22:00 UTC
(16 hours ago)
VFR
Wind Visibility
330° at 7 knots
 Gusting to 15 knots
30 miles
Clouds
  • Broken at 5,000' AGL
  • Broken at 17,000' AGL
Temperature Dewpoint
22°C / 72°F 8°C / 46°F
Humidity Altimeter Pressure
41% 30.24" Hg 1025.2 hPa